createdAt,value
2023-03-21T00:03:46.846Z,99776.36
2023-03-21T00:12:11.816Z,99770.91
2023-03-21T00:20:35.053Z,99772.98
2023-03-21T00:28:58.737Z,99776.14
2023-03-21T00:37:21.897Z,99769.21
2023-03-21T00:45:46.612Z,99763.17
2023-03-21T00:54:13.091Z,99761.66
2023-03-21T01:02:38.119Z,99757.49
2023-03-21T01:11:05.661Z,99756.55
2023-03-21T01:19:48.352Z,99758.55
2023-03-21T01:28:14.053Z,99759.27
2023-03-21T01:36:37.292Z,99765.92
2023-03-21T01:45:27.265Z,99762.80
2023-03-21T01:53:51.140Z,99760.52
2023-03-21T02:02:23.302Z,99760.66
2023-03-21T02:11:07.767Z,99760.37
2023-03-21T02:20:09.444Z,99757.20
2023-03-21T02:28:49.371Z,99757.58
2023-03-21T02:37:38.589Z,99756.55
2023-03-21T02:46:11.034Z,99751.31
2023-03-21T02:54:47.525Z,99752.17
2023-03-21T03:03:28.025Z,99748.61
2023-03-21T03:12:55.225Z,99742.66
2023-03-21T03:22:05.088Z,99749.04
2023-03-21T03:30:42.220Z,99756.45
2023-03-21T03:39:14.873Z,99748.31
2023-03-21T03:47:59.888Z,99749.77
2023-03-21T03:56:28.028Z,99759.41
2023-03-21T04:04:53.121Z,99759.92
2023-03-21T04:13:16.626Z,99761.38
2023-03-21T04:22:06.741Z,99768.14
2023-03-21T04:30:34.328Z,99771.91
2023-03-21T04:39:12.364Z,99772.27
2023-03-21T04:47:36.475Z,99771.95
2023-03-21T04:56:00.811Z,99771.75
2023-03-21T05:04:26.235Z,99769.90
2023-03-21T05:12:57.387Z,99769.61
2023-03-21T05:21:24.732Z,99773.80
2023-03-21T05:30:45.314Z,99776.21
2023-03-21T05:39:22.944Z,99783.73
2023-03-21T05:48:01.032Z,99783.89
2023-03-21T05:56:28.089Z,99793.29
2023-03-21T06:04:59.736Z,99798.33
2023-03-21T06:13:23.035Z,99801.81
2023-03-21T06:21:46.307Z,99808.83
2023-03-21T06:30:10.389Z,99812.80
2023-03-21T06:38:41.564Z,99821.39
2023-03-21T06:47:04.734Z,99827.32
2023-03-21T06:55:29.757Z,99833.25
2023-03-21T07:03:56.759Z,99837.11
2023-03-21T07:12:20.403Z,99840.32
2023-03-21T07:20:59.916Z,99839.74
2023-03-21T07:29:23.318Z,99843.48
2023-03-21T07:37:46.311Z,99840.77
2023-03-21T07:46:12.194Z,99843.05
2023-03-21T07:54:35.422Z,99848.27
2023-03-21T08:02:59.751Z,99853.77
2023-03-21T08:11:23.758Z,99859.85
2023-03-21T08:19:46.732Z,99859.22
2023-03-21T08:28:09.986Z,99858.15
2023-03-21T08:36:34.360Z,99867.14
2023-03-21T08:44:57.409Z,99865.25
2023-03-21T08:53:20.556Z,99870.27
2023-03-21T09:01:43.658Z,99879.54
2023-03-21T09:10:20.592Z,99883.16
2023-03-21T09:18:47.409Z,99888.80
2023-03-21T09:27:10.449Z,99891.94
2023-03-21T09:35:33.524Z,99894.80
2023-03-21T09:44:28.938Z,99896.23
2023-03-21T09:53:05.417Z,99897.33
2023-03-21T10:01:34.136Z,99901.80
2023-03-21T10:10:00.824Z,99904.61
2023-03-21T10:18:27.486Z,99897.95
2023-03-21T10:26:52.513Z,99895.23
2023-03-21T10:35:15.841Z,99891.18
2023-03-21T10:43:41.132Z,99896.02
2023-03-21T10:52:08.705Z,99892.05
2023-03-21T11:00:36.413Z,99892.48
2023-03-21T11:09:48.162Z,99892.92
2023-03-21T11:18:20.490Z,99891.31
2023-03-21T11:26:49.907Z,99891.30
2023-03-21T11:35:20.452Z,99887.68
2023-03-21T11:43:52.762Z,99884.73
2023-03-21T11:52:41.735Z,99882.76
2023-03-21T12:01:35.140Z,99882.31
2023-03-21T12:10:13.224Z,99874.77
2023-03-21T12:18:56.247Z,99877.88
2023-03-21T12:28:03.808Z,99878.14
2023-03-21T12:36:38.204Z,99878.56
2023-03-21T12:45:19.240Z,99874.73
2023-03-21T12:54:17.754Z,99871.20
2023-03-21T13:02:47.246Z,99875.00
2023-03-21T13:11:16.676Z,99877.45
2023-03-21T13:19:51.746Z,99877.17
2023-03-21T13:28:28.164Z,99880.01
2023-03-21T13:36:52.887Z,99877.20
2023-03-21T13:45:50.296Z,99885.14
2023-03-21T13:54:22.636Z,99882.61
2023-03-21T14:02:58.588Z,99876.53
2023-03-21T14:11:24.032Z,99870.27
2023-03-21T14:19:47.391Z,99870.56
2023-03-21T14:28:30.108Z,99874.58
2023-03-21T14:36:58.169Z,99864.18
2023-03-21T14:45:21.714Z,99866.45
2023-03-21T14:53:46.237Z,99864.35
2023-03-21T15:02:46.480Z,99863.67
2023-03-21T15:11:12.853Z,99857.10
2023-03-21T15:19:40.215Z,99854.95
2023-03-21T15:28:05.399Z,99857.50
2023-03-21T15:36:34.218Z,99857.08
2023-03-21T21:24:57.628Z,99998.37
2023-03-21T21:34:27.716Z,100005.67
2023-03-21T21:43:40.019Z,100004.30
2023-03-21T21:52:55.173Z,100003.52
2023-03-21T22:01:57.736Z,99998.30
2023-03-21T22:10:46.862Z,100003.52
2023-03-21T22:19:33.820Z,100009.60
2023-03-21T22:28:44.267Z,100013.24
2023-03-21T22:37:45.882Z,100015.73
2023-03-21T22:46:18.143Z,100008.75
2023-03-21T22:55:19.022Z,100007.07
2023-03-21T23:04:50.903Z,100006.89
2023-03-21T23:13:58.728Z,100002.17
2023-03-21T23:23:15.761Z,99991.90
